sensor_id;sensor_type;location;lat;lon;timestamp;pressure;altitude;pressure_sealevel;temperature;humidity
71457;BME280;59263;48.160;11.752;2022-12-18T00:01:34;97014.09;;;-6.45;100.00
71457;BME280;59263;48.160;11.752;2022-12-18T00:04:02;97007.38;;;-6.47;100.00
71457;BME280;59263;48.160;11.752;2022-12-18T00:06:31;97010.69;;;-6.41;100.00
71457;BME280;59263;48.160;11.752;2022-12-18T00:08:58;97024.00;;;-6.28;100.00
71457;BME280;59263;48.160;11.752;2022-12-18T00:11:27;97029.06;;;-6.28;100.00
71457;BME280;59263;48.160;11.752;2022-12-18T00:13:53;97018.22;;;-6.36;100.00
71457;BME280;59263;48.160;11.752;2022-12-18T00:16:21;97021.53;;;-6.34;100.00
71457;BME280;59263;48.160;11.752;2022-12-18T00:18:48;97003.19;;;-6.48;100.00
71457;BME280;59263;48.160;11.752;2022-12-18T00:21:14;96983.06;;;-6.51;100.00
71457;BME280;59263;48.160;11.752;2022-12-18T00:23:41;97019.88;;;-6.35;100.00
71457;BME280;59263;48.160;11.752;2022-12-18T00:26:11;96991.50;;;-6.55;100.00
71457;BME280;59263;48.160;11.752;2022-12-18T00:28:40;97024.06;;;-6.34;100.00
71457;BME280;59263;48.160;11.752;2022-12-18T00:31:07;97021.53;;;-6.34;100.00
71457;BME280;59263;48.160;11.752;2022-12-18T00:33:34;97018.25;;;-6.45;100.00
71457;BME280;59263;48.160;11.752;2022-12-18T00:36:03;97009.00;;;-6.42;100.00
71457;BME280;59263;48.160;11.752;2022-12-18T00:38:29;97012.38;;;-6.41;100.00
71457;BME280;59263;48.160;11.752;2022-12-18T00:40:54;97019.94;;;-6.41;100.00
71457;BME280;59263;48.160;11.752;2022-12-18T00:43:20;97013.19;;;-6.42;100.00
71457;BME280;59263;48.160;11.752;2022-12-18T00:45:45;97027.41;;;-6.35;100.00
71457;BME280;59263;48.160;11.752;2022-12-18T00:48:10;97006.59;;;-6.55;100.00
71457;BME280;59263;48.160;11.752;2022-12-18T00:50:36;97048.41;;;-6.33;100.00
71457;BME280;59263;48.160;11.752;2022-12-18T00:53:01;97018.31;;;-6.48;100.00
71457;BME280;59263;48.160;11.752;2022-12-18T00:55:27;97046.69;;;-6.28;100.00
71457;BME280;59263;48.160;11.752;2022-12-18T00:57:52;97042.53;;;-6.34;100.00
71457;BME280;59263;48.160;11.752;2022-12-18T01:00:18;97048.38;;;-6.31;100.00
71457;BME280;59263;48.160;11.752;2022-12-18T01:02:43;97020.03;;;-6.55;100.00
71457;BME280;59263;48.160;11.752;2022-12-18T01:05:11;97056.69;;;-6.19;100.00
71457;BME280;59263;48.160;11.752;2022-12-18T01:07:38;97052.50;;;-6.20;100.00
71457;BME280;59263;48.160;11.752;2022-12-18T01:10:05;97066.72;;;-6.16;100.00
71457;BME280;59263;48.160;11.752;2022-12-18T01:12:31;97052.53;;;-6.24;100.00
71457;BME280;59263;48.160;11.752;2022-12-18T01:14:56;97043.28;;;-6.22;100.00
71457;BME280;59263;48.160;11.752;2022-12-18T01:17:22;97013.16;;;-6.33;100.00
71457;BME280;59263;48.160;11.752;2022-12-18T01:19:47;97039.97;;;-6.26;100.00
71457;BME280;59263;48.160;11.752;2022-12-18T01:22:13;97050.06;;;-6.32;100.00
71457;BME280;59263;48.160;11.752;2022-12-18T01:24:39;97055.88;;;-6.24;100.00
71457;BME280;59263;48.160;11.752;2022-12-18T01:27:04;97081.00;;;-6.13;100.00
71457;BME280;59263;48.160;11.752;2022-12-18T01:29:29;97019.94;;;-6.41;100.00
71457;BME280;59263;48.160;11.752;2022-12-18T01:31:55;97075.09;;;-6.11;100.00
71457;BME280;59263;48.160;11.752;2022-12-18T01:34:23;97088.56;;;-6.15;100.00
71457;BME280;59263;48.160;11.752;2022-12-18T01:36:48;97092.00;;;-6.25;100.00
71457;BME280;59263;48.160;11.752;2022-12-18T01:39:17;97075.25;;;-6.32;100.00
71457;BME280;59263;48.160;11.752;2022-12-18T01:41:43;97113.72;;;-6.13;100.00
71457;BME280;59263;48.160;11.752;2022-12-18T01:47:49;97122.97;;;-6.14;100.00
71457;BME280;59263;48.160;11.752;2022-12-18T01:50:33;97112.13;;;-6.22;100.00
71457;BME280;59263;48.160;11.752;2022-12-18T01:53:05;97114.53;;;-6.10;100.00
71457;BME280;59263;48.160;11.752;2022-12-18T01:55:36;97111.19;;;-6.09;100.00
71457;BME280;59263;48.160;11.752;2022-12-18T01:58:03;97113.69;;;-6.05;100.00
71457;BME280;59263;48.160;11.752;2022-12-18T02:00:30;97065.16;;;-6.26;100.00
71457;BME280;59263;48.160;11.752;2022-12-18T02:02:55;97106.97;;;-6.03;100.00
71457;BME280;59263;48.160;11.752;2022-12-18T02:05:29;97066.81;;;-6.28;100.00
71457;BME280;59263;48.160;11.752;2022-12-18T02:08:11;97108.66;;;-6.04;100.00
71457;BME280;59263;48.160;11.752;2022-12-18T02:14:14;97088.47;;;-6.02;100.00
71457;BME280;59263;48.160;11.752;2022-12-18T02:19:34;97088.50;;;-6.05;100.00
71457;BME280;59263;48.160;11.752;2022-12-18T02:24:58;97091.81;;;-6.00;100.00
71457;BME280;59263;48.160;11.752;2022-12-18T02:27:26;97106.91;;;-5.97;100.00
71457;BME280;59263;48.160;11.752;2022-12-18T02:29:54;97079.34;;;-6.17;100.00
71457;BME280;59263;48.160;11.752;2022-12-18T02:32:25;97093.47;;;-5.96;100.00
71457;BME280;59263;48.160;11.752;2022-12-18T02:34:54;97071.72;;;-6.06;100.00
71457;BME280;59263;48.160;11.752;2022-12-18T02:37:22;97072.53;;;-6.03;100.00
71457;BME280;59263;48.160;11.752;2022-12-18T02:39:49;97067.53;;;-6.09;100.00
71457;BME280;59263;48.160;11.752;2022-12-18T02:42:16;97080.91;;;-5.99;100.00
71457;BME280;59263;48.160;11.752;2022-12-18T02:44:50;97060.00;;;-6.14;100.00
71457;BME280;59263;48.160;11.752;2022-12-18T02:47:22;97078.44;;;-6.10;100.00
71457;BME280;59263;48.160;11.752;2022-12-18T03:00:16;97085.91;;;-5.98;100.00
71457;BME280;59263;48.160;11.752;2022-12-18T03:02:57;97071.66;;;-6.02;100.00
71457;BME280;59263;48.160;11.752;2022-12-18T03:05:43;97060.84;;;-6.13;100.00
71457;BME280;59263;48.160;11.752;2022-12-18T03:08:15;97096.00;;;-5.96;100.00
71457;BME280;59263;48.160;11.752;2022-12-18T03:10:49;97066.69;;;-6.10;100.00
71457;BME280;59263;48.160;11.752;2022-12-18T03:13:21;97085.06;;;-5.98;100.00
71457;BME280;59263;48.160;11.752;2022-12-18T03:15:50;97061.63;;;-6.05;100.00
71457;BME280;59263;48.160;11.752;2022-12-18T03:18:38;97085.00;;;-5.89;100.00
71457;BME280;59263;48.160;11.752;2022-12-18T03:21:08;97076.66;;;-5.94;100.00
71457;BME280;59263;48.160;11.752;2022-12-18T03:23:40;97086.72;;;-5.94;100.00
71457;BME280;59263;48.160;11.752;2022-12-18T03:26:10;97081.69;;;-5.94;100.00
71457;BME280;59263;48.160;11.752;2022-12-18T03:28:40;97070.00;;;-6.04;100.00
71457;BME280;59263;48.160;11.752;2022-12-18T03:31:09;97071.66;;;-6.02;100.00
71457;BME280;59263;48.160;11.752;2022-12-18T03:33:42;97080.81;;;-5.92;100.00
71457;BME280;59263;48.160;11.752;2022-12-18T03:36:09;97074.16;;;-5.96;100.00
71457;BME280;59263;48.160;11.752;2022-12-18T03:38:34;97024.75;;;-6.17;100.00
71457;BME280;59263;48.160;11.752;2022-12-18T03:44:08;97053.22;;;-6.05;100.00
71457;BME280;59263;48.160;11.752;2022-12-18T03:46:46;97074.19;;;-6.00;100.00
71457;BME280;59263;48.160;11.752;2022-12-18T03:49:23;97075.03;;;-6.04;100.00
71457;BME280;59263;48.160;11.752;2022-12-18T03:52:03;97091.75;;;-5.94;100.00
71457;BME280;59263;48.160;11.752;2022-12-18T03:54:31;97096.81;;;-5.94;100.00
71457;BME280;59263;48.160;11.752;2022-12-18T03:57:03;97097.69;;;-5.97;100.00
71457;BME280;59263;48.160;11.752;2022-12-18T03:59:31;97078.41;;;-6.02;100.00
71457;BME280;59263;48.160;11.752;2022-12-18T04:01:59;97081.69;;;-5.97;100.00
71457;BME280;59263;48.160;11.752;2022-12-18T04:04:27;97053.31;;;-6.18;100.00
71457;BME280;59263;48.160;11.752;2022-12-18T04:06:54;97090.09;;;-5.95;100.00
71457;BME280;59263;48.160;11.752;2022-12-18T04:09:20;97080.88;;;-5.98;100.00
71457;BME280;59263;48.160;11.752;2022-12-18T04:11:47;97092.66;;;-5.97;100.00
71457;BME280;59263;48.160;11.752;2022-12-18T04:14:14;97071.63;;;-5.97;100.00
71457;BME280;59263;48.160;11.752;2022-12-18T04:16:39;97055.81;;;-6.13;100.00
71457;BME280;59263;48.160;11.752;2022-12-18T04:19:04;97094.22;;;-5.90;100.00
71457;BME280;59263;48.160;11.752;2022-12-18T04:21:30;97100.97;;;-5.93;100.00
71457;BME280;59263;48.160;11.752;2022-12-18T04:23:55;97094.22;;;-5.91;100.00
71457;BME280;59263;48.160;11.752;2022-12-18T04:26:20;97094.16;;;-5.80;100.00
71457;BME280;59263;48.160;11.752;2022-12-18T04:28:46;97073.28;;;-5.93;100.00
71457;BME280;59263;48.160;11.752;2022-12-18T04:31:12;97092.47;;;-5.83;100.00
71457;BME280;59263;48.160;11.752;2022-12-18T04:33:38;97054.94;;;-6.11;100.00
71457;BME280;59263;48.160;11.752;2022-12-18T04:36:03;97078.41;;;-6.05;100.00
71457;BME280;59263;48.160;11.752;2022-12-18T04:38:29;97070.09;;;-6.17;100.00
71457;BME280;59263;48.160;11.752;2022-12-18T04:40:54;97075.13;;;-6.14;100.00
71457;BME280;59263;48.160;11.752;2022-12-18T04:43:20;97101.78;;;-5.91;100.00
71457;BME280;59263;48.160;11.752;2022-12-18T04:45:45;97091.75;;;-5.94;100.00
71457;BME280;59263;48.160;11.752;2022-12-18T04:48:10;97050.00;;;-6.23;100.00
71457;BME280;59263;48.160;11.752;2022-12-18T04:50:36;97073.41;;;-6.09;100.00
71457;BME280;59263;48.160;11.752;2022-12-18T04:53:01;97101.03;;;-5.96;100.00
71457;BME280;59263;48.160;11.752;2022-12-18T04:55:27;97096.00;;;-5.99;100.00
71457;BME280;59263;48.160;11.752;2022-12-18T04:57:52;97112.75;;;-5.92;100.00
71457;BME280;59263;48.160;11.752;2022-12-18T05:00:18;97120.22;;;-5.86;100.00
71457;BME280;59263;48.160;11.752;2022-12-18T05:02:43;97105.25;;;-6.01;100.00
71457;BME280;59263;48.160;11.752;2022-12-18T05:05:09;97113.66;;;-5.99;100.00
71457;BME280;59263;48.160;11.752;2022-12-18T05:07:34;97136.22;;;-5.92;100.00
71457;BME280;59263;48.160;11.752;2022-12-18T05:09:59;97117.03;;;-6.00;100.00
71457;BME280;59263;48.160;11.752;2022-12-18T05:12:25;97125.25;;;-5.86;100.00
71457;BME280;59263;48.160;11.752;2022-12-18T05:14:51;97067.66;;;-6.23;100.00
71457;BME280;59263;48.160;11.752;2022-12-18T05:17:16;97131.97;;;-5.82;100.00
71457;BME280;59263;48.160;11.752;2022-12-18T05:19:42;97114.50;;;-6.05;100.00
71457;BME280;59263;48.160;11.752;2022-12-18T05:22:08;97143.78;;;-5.90;100.00
71457;BME280;59263;48.160;11.752;2022-12-18T05:24:33;97127.06;;;-5.97;100.00
71457;BME280;59263;48.160;11.752;2022-12-18T05:26:59;97123.59;;;-5.86;100.00
71457;BME280;59263;48.160;11.752;2022-12-18T05:29:24;97083.44;;;-6.02;100.00
71457;BME280;59263;48.160;11.752;2022-12-18T05:31:49;97115.16;;;-5.81;100.00
71457;BME280;59263;48.160;11.752;2022-12-18T05:34:15;97132.81;;;-5.85;100.00
71457;BME280;59263;48.160;11.752;2022-12-18T05:36:40;97075.22;;;-6.29;100.00
71457;BME280;59263;48.160;11.752;2022-12-18T05:39:06;97143.78;;;-5.90;100.00
71457;BME280;59263;48.160;11.752;2022-12-18T05:41:31;97146.22;;;-5.79;100.00
71457;BME280;59263;48.160;11.752;2022-12-18T05:43:57;97160.50;;;-5.77;100.00
71457;BME280;59263;48.160;11.752;2022-12-18T05:46:23;97156.28;;;-5.79;100.00
71457;BME280;59263;48.160;11.752;2022-12-18T05:48:49;97119.50;;;-5.96;100.00
71457;BME280;59263;48.160;11.752;2022-12-18T05:51:17;97143.69;;;-5.78;100.00
71457;BME280;59263;48.160;11.752;2022-12-18T05:53:43;97125.19;;;-5.74;100.00
71457;BME280;59263;48.160;11.752;2022-12-18T05:56:11;97140.28;;;-5.72;100.00
71457;BME280;59263;48.160;11.752;2022-12-18T05:58:38;97144.56;;;-5.80;100.00
71457;BME280;59263;48.160;11.752;2022-12-18T06:01:18;97150.44;;;-5.83;100.00
71457;BME280;59263;48.160;11.752;2022-12-18T06:03:43;97163.88;;;-5.81;100.00
71457;BME280;59263;48.160;11.752;2022-12-18T06:06:20;97168.91;;;-5.78;100.00
71457;BME280;59263;48.160;11.752;2022-12-18T06:08:46;97127.94;;;-6.00;100.00
71457;BME280;59263;48.160;11.752;2022-12-18T06:11:11;97170.53;;;-5.75;100.00
71457;BME280;59263;48.160;11.752;2022-12-18T06:13:37;97137.13;;;-5.94;100.00
71457;BME280;59263;48.160;11.752;2022-12-18T06:16:04;97165.53;;;-5.80;100.00
71457;BME280;59263;48.160;11.752;2022-12-18T06:18:30;97137.13;;;-5.94;100.00
71457;BME280;59263;48.160;11.752;2022-12-18T06:20:57;97158.88;;;-5.90;100.00
71457;BME280;59263;48.160;11.752;2022-12-18T06:23:22;97138.88;;;-6.09;100.00
71457;BME280;59263;48.160;11.752;2022-12-18T06:25:48;97121.31;;;-6.15;100.00
71457;BME280;59263;48.160;11.752;2022-12-18T06:28:13;97174.00;;;-5.87;100.00
71457;BME280;59263;48.160;11.752;2022-12-18T06:30:38;97166.44;;;-5.90;100.00
71457;BME280;59263;48.160;11.752;2022-12-18T06:33:04;97126.31;;;-6.10;100.00
71457;BME280;59263;48.160;11.752;2022-12-18T06:35:29;97153.84;;;-5.90;100.00
71457;BME280;59263;48.160;11.752;2022-12-18T06:37:54;97123.00;;;-6.15;100.00
71457;BME280;59263;48.160;11.752;2022-12-18T06:40:20;97147.28;;;-6.06;100.00
71457;BME280;59263;48.160;11.752;2022-12-18T06:42:45;97123.84;;;-6.21;100.00
71457;BME280;59263;48.160;11.752;2022-12-18T06:45:11;97186.63;;;-5.92;100.00
71457;BME280;59263;48.160;11.752;2022-12-18T06:47:36;97137.31;;;-6.22;100.00
71457;BME280;59263;48.160;11.752;2022-12-18T06:50:02;97190.78;;;-5.86;100.00
71457;BME280;59263;48.160;11.752;2022-12-18T06:52:28;97159.03;;;-6.09;100.00
71457;BME280;59263;48.160;11.752;2022-12-18T06:54:53;97150.72;;;-6.20;100.00
71457;BME280;59263;48.160;11.752;2022-12-18T06:57:18;97166.63;;;-6.12;100.00
71457;BME280;59263;48.160;11.752;2022-12-18T06:59:44;97182.50;;;-6.02;100.00
71457;BME280;59263;48.160;11.752;2022-12-18T07:02:12;97173.31;;;-6.09;100.00
71457;BME280;59263;48.160;11.752;2022-12-18T07:04:37;97205.16;;;-5.96;100.00
71457;BME280;59263;48.160;11.752;2022-12-18T07:07:03;97174.19;;;-6.12;100.00
71457;BME280;59263;48.160;11.752;2022-12-18T07:09:28;97209.31;;;-5.93;100.00
71457;BME280;59263;48.160;11.752;2022-12-18T07:11:53;97214.31;;;-5.90;100.00
71457;BME280;59263;48.160;11.752;2022-12-18T07:14:19;97197.66;;;-6.06;100.00
71457;BME280;59263;48.160;11.752;2022-12-18T07:16:44;97215.28;;;-6.00;100.00
71457;BME280;59263;48.160;11.752;2022-12-18T07:19:09;97207.69;;;-5.99;100.00
71457;BME280;59263;48.160;11.752;2022-12-18T07:21:35;97207.72;;;-6.00;100.00
71457;BME280;59263;48.160;11.752;2022-12-18T07:24:00;97209.38;;;-5.96;100.00
71457;BME280;59263;48.160;11.752;2022-12-18T07:26:25;97223.59;;;-5.94;100.00
71457;BME280;59263;48.160;11.752;2022-12-18T07:28:55;97227.00;;;-5.99;100.00
71457;BME280;59263;48.160;11.752;2022-12-18T07:31:21;97230.38;;;-5.99;100.00
71457;BME280;59263;48.160;11.752;2022-12-18T07:33:46;97232.03;;;-6.01;100.00
71457;BME280;59263;48.160;11.752;2022-12-18T07:36:13;97242.94;;;-5.94;100.00
71457;BME280;59263;48.160;11.752;2022-12-18T07:38:38;97231.25;;;-6.07;100.00
71457;BME280;59263;48.160;11.752;2022-12-18T07:41:05;97252.22;;;-6.02;100.00
71457;BME280;59263;48.160;11.752;2022-12-18T07:43:33;97249.69;;;-5.99;100.00
71457;BME280;59263;48.160;11.752;2022-12-18T07:45:58;97238.78;;;-6.04;100.00
71457;BME280;59263;48.160;11.752;2022-12-18T07:48:24;97238.78;;;-5.97;100.00
71457;BME280;59263;48.160;11.752;2022-12-18T07:50:49;97228.69;;;-6.00;100.00
71457;BME280;59263;48.160;11.752;2022-12-18T07:53:14;97232.88;;;-5.96;100.00
71457;BME280;59263;48.160;11.752;2022-12-18T07:55:41;97226.16;;;-6.01;100.00
71457;BME280;59263;48.160;11.752;2022-12-18T07:58:06;97234.56;;;-5.99;100.00
71457;BME280;59263;48.160;11.752;2022-12-18T08:00:32;97237.06;;;-5.95;100.00
71457;BME280;59263;48.160;11.752;2022-12-18T08:02:58;97224.47;;;-5.98;100.00
71457;BME280;59263;48.160;11.752;2022-12-18T08:05:23;97227.81;;;-5.94;100.00
71457;BME280;59263;48.160;11.752;2022-12-18T08:07:49;97235.31;;;-5.85;100.00
71457;BME280;59263;48.160;11.752;2022-12-18T08:10:14;97189.31;;;-6.18;100.00
71457;BME280;59263;48.160;11.752;2022-12-18T08:12:40;97216.91;;;-5.98;100.00
71457;BME280;59263;48.160;11.752;2022-12-18T08:15:05;97202.69;;;-6.06;100.00
71457;BME280;59263;48.160;11.752;2022-12-18T08:17:31;97236.19;;;-5.89;100.00
71457;BME280;59263;48.160;11.752;2022-12-18T08:19:56;97206.91;;;-6.04;100.00
71457;BME280;59263;48.160;11.752;2022-12-18T08:22:22;97207.75;;;-6.08;100.00
71457;BME280;59263;48.160;11.752;2022-12-18T08:24:48;97233.63;;;-5.88;100.00
71457;BME280;59263;48.160;11.752;2022-12-18T08:27:13;97232.81;;;-5.91;100.00
71457;BME280;59263;48.160;11.752;2022-12-18T08:29:39;97242.84;;;-5.80;100.00
71457;BME280;59263;48.160;11.752;2022-12-18T08:32:04;97257.06;;;-5.70;100.00
71457;BME280;59263;48.160;11.752;2022-12-18T08:34:30;97250.31;;;-5.68;100.00
71457;BME280;59263;48.160;11.752;2022-12-18T08:36:55;97239.47;;;-5.81;100.00
71457;BME280;59263;48.160;11.752;2022-12-18T08:39:20;97237.78;;;-5.79;100.00
71457;BME280;59263;48.160;11.752;2022-12-18T08:41:46;97269.59;;;-5.61;100.00
71457;BME280;59263;48.160;11.752;2022-12-18T08:44:32;97247.81;;;-5.73;100.00
71457;BME280;59263;48.160;11.752;2022-12-18T08:47:05;97276.31;;;-5.62;100.00
71457;BME280;59263;48.160;11.752;2022-12-18T08:49:30;97267.88;;;-5.54;100.00
71457;BME280;59263;48.160;11.752;2022-12-18T08:51:56;97237.75;;;-5.76;100.00
71457;BME280;59263;48.160;11.752;2022-12-18T08:54:23;97241.13;;;-5.74;100.00
71457;BME280;59263;48.160;11.752;2022-12-18T08:56:48;97257.00;;;-5.61;100.00
71457;BME280;59263;48.160;11.752;2022-12-18T08:59:15;97261.22;;;-5.63;100.00
71457;BME280;59263;48.160;11.752;2022-12-18T09:01:40;97241.09;;;-5.71;100.00
71457;BME280;59263;48.160;11.752;2022-12-18T09:04:05;97249.47;;;-5.69;100.00
71457;BME280;59263;48.160;11.752;2022-12-18T09:06:31;97249.44;;;-5.63;100.00
71457;BME280;59263;48.160;11.752;2022-12-18T09:08:57;97263.63;;;-5.49;100.00
71457;BME280;59263;48.160;11.752;2022-12-18T09:11:24;97253.63;;;-5.62;100.00
71457;BME280;59263;48.160;11.752;2022-12-18T09:13:51;97282.94;;;-5.45;100.00
71457;BME280;59263;48.160;11.752;2022-12-18T09:16:17;97257.84;;;-5.64;100.00
71457;BME280;59263;48.160;11.752;2022-12-18T09:18:42;97261.22;;;-5.63;100.00
71457;BME280;59263;48.160;11.752;2022-12-18T09:21:19;97267.84;;;-5.48;100.00
71457;BME280;59263;48.160;11.752;2022-12-18T09:23:54;97246.84;;;-5.50;100.00
71457;BME280;59263;48.160;11.752;2022-12-18T09:26:24;97264.47;;;-5.44;100.00
71457;BME280;59263;48.160;11.752;2022-12-18T09:28:51;97267.78;;;-5.39;100.00
71457;BME280;59263;48.160;11.752;2022-12-18T09:31:18;97257.66;;;-5.33;100.00
71457;BME280;59263;48.160;11.752;2022-12-18T09:33:44;97230.91;;;-5.52;100.00
71457;BME280;59263;48.160;11.752;2022-12-18T09:36:12;97240.06;;;-5.44;100.00
71457;BME280;59263;48.160;11.752;2022-12-18T09:38:38;97246.78;;;-5.40;100.00
71457;BME280;59263;48.160;11.752;2022-12-18T09:41:14;97281.09;;;-5.19;100.00
71457;BME280;59263;48.160;11.752;2022-12-18T09:43:44;97283.66;;;-5.28;100.00
71457;BME280;59263;48.160;11.752;2022-12-18T09:46:19;97267.72;;;-5.30;100.00
71457;BME280;59263;48.160;11.752;2022-12-18T09:48:52;97277.72;;;-5.18;100.00
71457;BME280;59263;48.160;11.752;2022-12-18T09:51:23;97261.00;;;-5.34;100.00
71457;BME280;59263;48.160;11.752;2022-12-18T09:54:02;97263.50;;;-5.28;100.00
71457;BME280;59263;48.160;11.752;2022-12-18T09:56:31;97278.50;;;-5.11;100.00
71457;BME280;59263;48.160;11.752;2022-12-18T09:59:02;97248.38;;;-5.31;100.00
71457;BME280;59263;48.160;11.752;2022-12-18T10:01:28;97229.94;;;-5.36;100.00
71457;BME280;59263;48.160;11.752;2022-12-18T10:03:55;97265.91;;;-5.16;100.00
71457;BME280;59263;48.160;11.752;2022-12-18T10:06:33;97221.50;;;-5.32;100.00
71457;BME280;59263;48.160;11.752;2022-12-18T10:14:53;97239.78;;;-5.04;100.00
71457;BME280;59263;48.160;11.752;2022-12-18T10:17:45;97232.19;;;-5.02;100.00
71457;BME280;59263;48.160;11.752;2022-12-18T10:26:06;97230.22;;;-4.73;100.00
71457;BME280;59263;48.160;11.752;2022-12-18T10:28:34;97227.72;;;-4.74;100.00
71457;BME280;59263;48.160;11.752;2022-12-18T10:31:06;97210.25;;;-4.97;100.00
71457;BME280;59263;48.160;11.752;2022-12-18T10:33:32;97230.31;;;-4.82;100.00
71457;BME280;59263;48.160;11.752;2022-12-18T10:35:58;97173.41;;;-5.14;100.00
71457;BME280;59263;48.160;11.752;2022-12-18T10:38:28;97212.78;;;-4.96;100.00
71457;BME280;59263;48.160;11.752;2022-12-18T10:41:03;97219.59;;;-5.04;100.00
71457;BME280;59263;48.160;11.752;2022-12-18T10:43:36;97220.34;;;-4.97;100.00
71457;BME280;59263;48.160;11.752;2022-12-18T10:48:39;97175.03;;;-5.08;100.00
71457;BME280;59263;48.160;11.752;2022-12-18T10:51:06;97218.50;;;-4.80;100.00
71457;BME280;59263;48.160;11.752;2022-12-18T10:53:34;97204.22;;;-4.81;100.00
71457;BME280;59263;48.160;11.752;2022-12-18T10:56:00;97226.81;;;-4.69;100.00
71457;BME280;59263;48.160;11.752;2022-12-18T10:58:28;97228.56;;;-4.77;100.00
71457;BME280;59263;48.160;11.752;2022-12-18T11:01:17;97223.50;;;-4.74;100.00
71457;BME280;59263;48.160;11.752;2022-12-18T11:06:22;97221.16;;;-4.92;100.00
71457;BME280;59263;48.160;11.752;2022-12-18T11:09:00;97228.66;;;-4.86;100.00
71457;BME280;59263;48.160;11.752;2022-12-18T11:11:26;97211.84;;;-4.90;100.00
71457;BME280;59263;48.160;11.752;2022-12-18T11:14:21;97201.66;;;-4.78;100.00
71457;BME280;59263;48.160;11.752;2022-12-18T11:16:49;97211.78;;;-4.82;100.00
71457;BME280;59263;48.160;11.752;2022-12-18T11:19:28;97202.63;;;-4.91;100.00
71457;BME280;59263;48.160;11.752;2022-12-18T11:21:55;97213.63;;;-4.98;100.00
71457;BME280;59263;48.160;11.752;2022-12-18T11:24:30;97226.13;;;-4.86;100.00
71457;BME280;59263;48.160;11.752;2022-12-18T11:26:58;97227.09;;;-4.99;100.00
71457;BME280;59263;48.160;11.752;2022-12-18T11:29:37;97216.19;;;-5.03;100.00
71457;BME280;59263;48.160;11.752;2022-12-18T11:32:19;97235.31;;;-4.79;100.00
71457;BME280;59263;48.160;11.752;2022-12-18T11:34:57;97220.13;;;-4.74;100.00
71457;BME280;59263;48.160;11.752;2022-12-18T11:37:24;97225.22;;;-4.79;100.00
71457;BME280;59263;48.160;11.752;2022-12-18T11:40:00;97230.16;;;-4.67;100.00
71457;BME280;59263;48.160;11.752;2022-12-18T11:42:36;97219.16;;;-4.59;100.00
71457;BME280;59263;48.160;11.752;2022-12-18T11:50:17;97153.13;;;-5.04;100.00
71457;BME280;59263;48.160;11.752;2022-12-18T11:52:44;97196.41;;;-4.59;100.00
71457;BME280;59263;48.160;11.752;2022-12-18T11:55:12;97203.84;;;-4.49;100.00
71457;BME280;59263;48.160;11.752;2022-12-18T11:58:11;97201.97;;;-4.31;100.00
71457;BME280;59263;48.160;11.752;2022-12-18T12:00:49;97198.56;;;-4.30;100.00
71457;BME280;59263;48.160;11.752;2022-12-18T12:11:31;97203.66;;;-4.32;100.00
71457;BME280;59263;48.160;11.752;2022-12-18T12:14:15;97200.31;;;-4.32;100.00
71457;BME280;59263;48.160;11.752;2022-12-18T12:16:58;97199.50;;;-4.36;100.00
71457;BME280;59263;48.160;11.752;2022-12-18T12:19:45;97203.81;;;-4.44;100.00
71457;BME280;59263;48.160;11.752;2022-12-18T12:22:16;97192.00;;;-4.45;100.00
71457;BME280;59263;48.160;11.752;2022-12-18T12:30:49;97187.66;;;-4.32;100.00
71457;BME280;59263;48.160;11.752;2022-12-18T12:41:02;97167.63;;;-4.45;100.00
71457;BME280;59263;48.160;11.752;2022-12-18T12:43:44;97156.81;;;-4.56;100.00
71457;BME280;59263;48.160;11.752;2022-12-18T12:46:13;97165.09;;;-4.45;100.00
71457;BME280;59263;48.160;11.752;2022-12-18T12:48:42;97169.22;;;-4.39;100.00
71457;BME280;59263;48.160;11.752;2022-12-18T12:51:21;97166.00;;;-4.50;100.00
71457;BME280;59263;48.160;11.752;2022-12-18T12:53:47;97161.88;;;-4.57;100.00
71457;BME280;59263;48.160;11.752;2022-12-18T12:56:16;97168.66;;;-4.63;100.00
71457;BME280;59263;48.160;11.752;2022-12-18T13:10:13;97187.81;;;-4.46;100.00
71457;BME280;59263;48.160;11.752;2022-12-18T13:15:37;97174.63;;;-4.70;100.00
71457;BME280;59263;48.160;11.752;2022-12-18T13:20:40;97189.88;;;-4.79;100.00
71457;BME280;59263;48.160;11.752;2022-12-18T13:23:19;97188.00;;;-4.62;100.00
71457;BME280;59263;48.160;11.752;2022-12-18T13:26:00;97198.13;;;-4.65;100.00
71457;BME280;59263;48.160;11.752;2022-12-18T13:34:36;97196.63;;;-4.82;100.00
71457;BME280;59263;48.160;11.752;2022-12-18T13:37:39;97199.94;;;-4.74;100.00
71457;BME280;59263;48.160;11.752;2022-12-18T13:43:24;97198.84;;;-4.53;100.00
71457;BME280;59263;48.160;11.752;2022-12-18T13:48:56;97193.88;;;-4.61;100.00
71457;BME280;59263;48.160;11.752;2022-12-18T13:51:23;97175.63;;;-4.81;100.00
71457;BME280;59263;48.160;11.752;2022-12-18T13:54:18;97185.59;;;-4.71;100.00
71457;BME280;59263;48.160;11.752;2022-12-18T13:56:46;97197.31;;;-4.65;100.00
71457;BME280;59263;48.160;11.752;2022-12-18T14:01:45;97177.25;;;-4.79;100.00
71457;BME280;59263;48.160;11.752;2022-12-18T14:04:28;97179.75;;;-4.76;100.00
71457;BME280;59263;48.160;11.752;2022-12-18T14:07:01;97173.13;;;-4.86;100.00
71457;BME280;59263;48.160;11.752;2022-12-18T14:09:35;97169.84;;;-4.94;100.00
71457;BME280;59263;48.160;11.752;2022-12-18T14:12:01;97164.94;;;-5.09;100.00
71457;BME280;59263;48.160;11.752;2022-12-18T14:14:48;97172.44;;;-5.00;100.00
71457;BME280;59263;48.160;11.752;2022-12-18T14:17:15;97187.59;;;-5.00;100.00
71457;BME280;59263;48.160;11.752;2022-12-18T14:19:45;97186.75;;;-5.02;100.00
71457;BME280;59263;48.160;11.752;2022-12-18T14:22:17;97176.72;;;-5.08;100.00
71457;BME280;59263;48.160;11.752;2022-12-18T14:24:43;97186.03;;;-5.14;100.00
71457;BME280;59263;48.160;11.752;2022-12-18T14:27:20;97182.72;;;-5.19;100.00
71457;BME280;59263;48.160;11.752;2022-12-18T14:29:46;97129.97;;;-5.46;100.00
71457;BME280;59263;48.160;11.752;2022-12-18T14:32:16;97170.28;;;-5.40;100.00